Guarulhos - Governador André Franco Montoro International Airport
SBGR : now visible

Airfield :











YOU CAN JOIN US ON...

 
LOGIN :

Register | Disclaimer

   EN    FR    IT 

 









Legend :    VFR   Marginal VFR   IFR   Intensive IFR   Very Intensive IFR
Visi :
Ceiling :
>= 8 km
>= 3000ft
5 to 8 km
1000 to 3000 ft
1500m to 5 km
500 to 1000 ft
800 to 1500m
200 to 500 ft
< 800m
< 200 ft
Symbols :   Thunderstorms  Fog  Heavy snow  Heavy precipitations  Wind > 20 kt






- Airport Elevation : 2459 ft
- IATA code : GRU


SBGR - Guarulhos - Governador André Franco Montoro International

CURRENT METAR :
  • 071000Z 18002KT 9999 SCT045 20/18 Q1017

EXPIRED METARs :
  • 070900Z 24002KT 9999 FEW030 19/17 Q1016
  • 070800Z 01006KT 9999 FEW030 20/17 Q1015

TAF TAF SBGR
Valid from the 07 at 06:00 until the 08 at 12:00 UTC


070200Z 0706/0812 20010KT 8000 BKN030 TX24/0714Z TN15/0809Z
PROB40 0706/0709 22015KT 4000 TSRA BR BKN013 FEW040CB
PROB30 0709/0713 4000 RA BR BKN011
BECMG 0713/0715 18010KT 6000 RA OVC017
PROB30 0718/0722 4000 TSRA BR BKN009 FEW030CB
BECMG 0722/0724 15010KT 8000 NSW BKN011
TEMPO 0801/0806 5000 DZ BR BKN010 OVC020
PROB30 0810/0812 BKN015 RMK PGE



MET'MAP, your aeronautical weather chart ! - Copyright ORBIFLY December 2007 - Disclaimer

ORBIFLY MET'MAP TEAM :

Programming & Development : Alexandra Zaïnal
Concept & original design : Baudouin d'Aumeries
Assistance for programming : Marc-Olivier Méhu
Technical & hardware support : Manuel Goepfert

Contact : metmap@orbifly.com




SOURCES & CREDITS :

   NOAA       Earth
Advisory